sensor_id;sensor_type;location;lat;lon;timestamp;temperature;humidity
27978;DHT22;15314;49.248;6.968;2024-01-06T00:00:52;4.70;99.90
27978;DHT22;15314;49.248;6.968;2024-01-06T00:02:12;4.70;99.90
27978;DHT22;15314;49.248;6.968;2024-01-06T00:03:33;4.70;99.90
27978;DHT22;15314;49.248;6.968;2024-01-06T00:04:54;4.80;99.90
27978;DHT22;15314;49.248;6.968;2024-01-06T00:06:14;4.90;99.90
27978;DHT22;15314;49.248;6.968;2024-01-06T00:07:35;4.90;99.90
27978;DHT22;15314;49.248;6.968;2024-01-06T00:08:55;5.00;99.90
27978;DHT22;15314;49.248;6.968;2024-01-06T00:10:17;5.10;99.90
27978;DHT22;15314;49.248;6.968;2024-01-06T00:11:37;5.20;99.90
27978;DHT22;15314;49.248;6.968;2024-01-06T00:12:58;5.10;99.90
27978;DHT22;15314;49.248;6.968;2024-01-06T00:14:19;5.10;99.90
27978;DHT22;15314;49.248;6.968;2024-01-06T00:15:39;5.10;99.90
27978;DHT22;15314;49.248;6.968;2024-01-06T00:17:00;5.10;99.90
27978;DHT22;15314;49.248;6.968;2024-01-06T00:18:20;5.10;99.90
27978;DHT22;15314;49.248;6.968;2024-01-06T00:19:41;5.00;99.90
27978;DHT22;15314;49.248;6.968;2024-01-06T00:21:02;5.00;99.90
27978;DHT22;15314;49.248;6.968;2024-01-06T00:22:22;4.90;99.90
27978;DHT22;15314;49.248;6.968;2024-01-06T00:23:43;4.90;99.90
27978;DHT22;15314;49.248;6.968;2024-01-06T00:25:04;4.90;99.90
27978;DHT22;15314;49.248;6.968;2024-01-06T00:26:24;4.90;99.90
27978;DHT22;15314;49.248;6.968;2024-01-06T00:27:45;4.90;99.90
27978;DHT22;15314;49.248;6.968;2024-01-06T00:29:05;5.00;99.90
27978;DHT22;15314;49.248;6.968;2024-01-06T00:30:26;5.00;99.90
27978;DHT22;15314;49.248;6.968;2024-01-06T00:31:47;4.90;99.90
27978;DHT22;15314;49.248;6.968;2024-01-06T00:33:07;4.90;99.90
27978;DHT22;15314;49.248;6.968;2024-01-06T00:34:28;4.90;99.90
27978;DHT22;15314;49.248;6.968;2024-01-06T00:35:48;4.80;99.90
27978;DHT22;15314;49.248;6.968;2024-01-06T00:37:09;4.80;99.90
27978;DHT22;15314;49.248;6.968;2024-01-06T00:38:30;4.90;99.90
27978;DHT22;15314;49.248;6.968;2024-01-06T00:39:50;4.80;99.90
27978;DHT22;15314;49.248;6.968;2024-01-06T00:41:11;4.80;99.90
27978;DHT22;15314;49.248;6.968;2024-01-06T00:42:31;4.80;99.90
27978;DHT22;15314;49.248;6.968;2024-01-06T00:43:52;4.80;99.90
27978;DHT22;15314;49.248;6.968;2024-01-06T00:45:12;4.90;99.90
27978;DHT22;15314;49.248;6.968;2024-01-06T00:46:33;5.00;99.90
27978;DHT22;15314;49.248;6.968;2024-01-06T00:47:54;5.10;99.90
27978;DHT22;15314;49.248;6.968;2024-01-06T00:49:14;5.20;99.90
27978;DHT22;15314;49.248;6.968;2024-01-06T00:50:35;5.30;99.90
27978;DHT22;15314;49.248;6.968;2024-01-06T00:51:55;5.30;99.90
27978;DHT22;15314;49.248;6.968;2024-01-06T00:53:16;5.40;99.90
27978;DHT22;15314;49.248;6.968;2024-01-06T00:54:36;5.40;99.90
27978;DHT22;15314;49.248;6.968;2024-01-06T00:55:57;5.50;99.90
27978;DHT22;15314;49.248;6.968;2024-01-06T00:57:18;5.50;99.90
27978;DHT22;15314;49.248;6.968;2024-01-06T00:58:44;5.70;99.90
27978;DHT22;15314;49.248;6.968;2024-01-06T01:00:05;5.80;99.90
27978;DHT22;15314;49.248;6.968;2024-01-06T01:01:26;5.80;99.90
27978;DHT22;15314;49.248;6.968;2024-01-06T01:02:47;5.70;99.90
27978;DHT22;15314;49.248;6.968;2024-01-06T01:04:08;5.80;99.90
27978;DHT22;15314;49.248;6.968;2024-01-06T01:05:28;5.80;99.90
27978;DHT22;15314;49.248;6.968;2024-01-06T01:06:49;5.90;99.90
27978;DHT22;15314;49.248;6.968;2024-01-06T01:08:09;5.90;99.90
27978;DHT22;15314;49.248;6.968;2024-01-06T01:09:30;5.90;99.90
27978;DHT22;15314;49.248;6.968;2024-01-06T01:10:51;5.90;99.90
27978;DHT22;15314;49.248;6.968;2024-01-06T01:12:11;6.00;99.90
27978;DHT22;15314;49.248;6.968;2024-01-06T01:13:32;5.90;99.90
27978;DHT22;15314;49.248;6.968;2024-01-06T01:14:53;5.80;99.90
27978;DHT22;15314;49.248;6.968;2024-01-06T01:16:14;5.80;99.90
27978;DHT22;15314;49.248;6.968;2024-01-06T01:17:34;5.70;99.90
27978;DHT22;15314;49.248;6.968;2024-01-06T01:18:55;5.70;99.90
27978;DHT22;15314;49.248;6.968;2024-01-06T01:20:15;5.70;99.90
27978;DHT22;15314;49.248;6.968;2024-01-06T01:21:36;5.80;99.90
27978;DHT22;15314;49.248;6.968;2024-01-06T01:22:57;5.90;99.90
27978;DHT22;15314;49.248;6.968;2024-01-06T01:24:17;5.90;99.90
27978;DHT22;15314;49.248;6.968;2024-01-06T01:25:38;6.00;99.90
27978;DHT22;15314;49.248;6.968;2024-01-06T01:26:59;6.10;99.90
27978;DHT22;15314;49.248;6.968;2024-01-06T01:28:19;6.10;99.90
27978;DHT22;15314;49.248;6.968;2024-01-06T01:29:40;6.10;99.90
27978;DHT22;15314;49.248;6.968;2024-01-06T01:31:00;6.20;99.90
27978;DHT22;15314;49.248;6.968;2024-01-06T01:32:21;6.30;99.90
27978;DHT22;15314;49.248;6.968;2024-01-06T01:33:42;6.30;99.90
27978;DHT22;15314;49.248;6.968;2024-01-06T01:35:02;6.20;99.90
27978;DHT22;15314;49.248;6.968;2024-01-06T01:36:23;6.10;99.90
27978;DHT22;15314;49.248;6.968;2024-01-06T01:37:44;6.10;99.90
27978;DHT22;15314;49.248;6.968;2024-01-06T01:39:04;6.20;99.90
27978;DHT22;15314;49.248;6.968;2024-01-06T01:40:25;6.20;99.90
27978;DHT22;15314;49.248;6.968;2024-01-06T01:41:46;6.20;99.90
27978;DHT22;15314;49.248;6.968;2024-01-06T01:43:16;6.10;99.90
27978;DHT22;15314;49.248;6.968;2024-01-06T01:44:36;6.00;99.90
27978;DHT22;15314;49.248;6.968;2024-01-06T01:45:57;6.00;99.90
27978;DHT22;15314;49.248;6.968;2024-01-06T01:47:18;5.90;99.90
27978;DHT22;15314;49.248;6.968;2024-01-06T01:48:39;5.90;99.90
27978;DHT22;15314;49.248;6.968;2024-01-06T01:50:01;5.90;99.90
27978;DHT22;15314;49.248;6.968;2024-01-06T01:51:22;6.00;99.90
27978;DHT22;15314;49.248;6.968;2024-01-06T01:52:43;6.10;99.90
27978;DHT22;15314;49.248;6.968;2024-01-06T01:54:05;6.10;99.90
27978;DHT22;15314;49.248;6.968;2024-01-06T01:55:26;6.20;99.90
27978;DHT22;15314;49.248;6.968;2024-01-06T01:56:47;6.20;99.90
27978;DHT22;15314;49.248;6.968;2024-01-06T01:58:08;6.30;99.90
27978;DHT22;15314;49.248;6.968;2024-01-06T01:59:29;6.30;99.90
27978;DHT22;15314;49.248;6.968;2024-01-06T02:00:50;6.40;99.90
27978;DHT22;15314;49.248;6.968;2024-01-06T02:02:11;6.40;99.90
27978;DHT22;15314;49.248;6.968;2024-01-06T02:03:32;6.40;99.90
27978;DHT22;15314;49.248;6.968;2024-01-06T02:04:53;6.40;99.90
27978;DHT22;15314;49.248;6.968;2024-01-06T02:06:13;6.50;99.90
27978;DHT22;15314;49.248;6.968;2024-01-06T02:07:34;6.40;99.90
27978;DHT22;15314;49.248;6.968;2024-01-06T02:08:55;6.50;99.90
27978;DHT22;15314;49.248;6.968;2024-01-06T02:10:16;6.50;99.90
27978;DHT22;15314;49.248;6.968;2024-01-06T02:11:36;6.50;99.90
27978;DHT22;15314;49.248;6.968;2024-01-06T02:12:57;6.60;99.90
27978;DHT22;15314;49.248;6.968;2024-01-06T02:14:17;6.60;99.90
27978;DHT22;15314;49.248;6.968;2024-01-06T02:15:38;6.60;99.90
27978;DHT22;15314;49.248;6.968;2024-01-06T02:16:59;6.70;99.90
27978;DHT22;15314;49.248;6.968;2024-01-06T02:18:19;6.70;99.90
27978;DHT22;15314;49.248;6.968;2024-01-06T02:19:40;6.70;99.90
27978;DHT22;15314;49.248;6.968;2024-01-06T02:21:02;6.70;99.90
27978;DHT22;15314;49.248;6.968;2024-01-06T02:22:22;6.80;99.90
27978;DHT22;15314;49.248;6.968;2024-01-06T02:23:43;6.80;99.90
27978;DHT22;15314;49.248;6.968;2024-01-06T02:25:07;6.80;99.90
27978;DHT22;15314;49.248;6.968;2024-01-06T02:26:32;6.90;99.90
27978;DHT22;15314;49.248;6.968;2024-01-06T02:27:53;6.90;99.90
27978;DHT22;15314;49.248;6.968;2024-01-06T02:29:13;6.90;99.90
27978;DHT22;15314;49.248;6.968;2024-01-06T02:30:34;6.80;99.90
27978;DHT22;15314;49.248;6.968;2024-01-06T02:31:55;6.80;99.90
27978;DHT22;15314;49.248;6.968;2024-01-06T02:33:18;6.90;99.90
27978;DHT22;15314;49.248;6.968;2024-01-06T02:34:44;6.90;99.90
27978;DHT22;15314;49.248;6.968;2024-01-06T02:36:05;6.90;99.90
27978;DHT22;15314;49.248;6.968;2024-01-06T02:37:25;6.80;99.90
27978;DHT22;15314;49.248;6.968;2024-01-06T02:38:46;6.90;99.90
27978;DHT22;15314;49.248;6.968;2024-01-06T02:40:07;6.80;99.90
27978;DHT22;15314;49.248;6.968;2024-01-06T02:41:28;6.90;99.90
27978;DHT22;15314;49.248;6.968;2024-01-06T02:42:49;6.90;99.90
27978;DHT22;15314;49.248;6.968;2024-01-06T02:44:09;6.80;99.90
27978;DHT22;15314;49.248;6.968;2024-01-06T02:45:30;6.80;99.90
27978;DHT22;15314;49.248;6.968;2024-01-06T02:46:50;6.90;99.90
27978;DHT22;15314;49.248;6.968;2024-01-06T02:48:11;6.90;99.90
27978;DHT22;15314;49.248;6.968;2024-01-06T02:49:31;6.90;99.90
27978;DHT22;15314;49.248;6.968;2024-01-06T02:50:52;6.90;99.90
27978;DHT22;15314;49.248;6.968;2024-01-06T02:52:13;6.80;99.90
27978;DHT22;15314;49.248;6.968;2024-01-06T02:53:33;6.90;99.90
27978;DHT22;15314;49.248;6.968;2024-01-06T02:54:54;6.80;99.90
27978;DHT22;15314;49.248;6.968;2024-01-06T02:56:14;6.80;99.90
27978;DHT22;15314;49.248;6.968;2024-01-06T02:57:41;6.80;99.90
27978;DHT22;15314;49.248;6.968;2024-01-06T02:59:01;6.80;99.90
27978;DHT22;15314;49.248;6.968;2024-01-06T03:00:22;6.80;99.90
27978;DHT22;15314;49.248;6.968;2024-01-06T03:01:42;6.80;99.90
27978;DHT22;15314;49.248;6.968;2024-01-06T03:03:03;6.80;99.90
27978;DHT22;15314;49.248;6.968;2024-01-06T03:04:24;6.80;99.90
27978;DHT22;15314;49.248;6.968;2024-01-06T03:05:44;6.90;99.90
27978;DHT22;15314;49.248;6.968;2024-01-06T03:07:07;6.80;99.90
27978;DHT22;15314;49.248;6.968;2024-01-06T03:08:28;6.80;99.90
27978;DHT22;15314;49.248;6.968;2024-01-06T03:09:48;6.80;99.90
27978;DHT22;15314;49.248;6.968;2024-01-06T03:11:10;6.90;99.90
27978;DHT22;15314;49.248;6.968;2024-01-06T03:12:31;6.90;99.90
27978;DHT22;15314;49.248;6.968;2024-01-06T03:13:51;7.00;99.90
27978;DHT22;15314;49.248;6.968;2024-01-06T03:15:12;6.90;99.90
27978;DHT22;15314;49.248;6.968;2024-01-06T03:16:32;7.00;99.90
27978;DHT22;15314;49.248;6.968;2024-01-06T03:17:54;6.90;99.90
27978;DHT22;15314;49.248;6.968;2024-01-06T03:19:14;6.90;99.90
27978;DHT22;15314;49.248;6.968;2024-01-06T03:20:35;6.90;99.90
27978;DHT22;15314;49.248;6.968;2024-01-06T03:21:56;6.90;99.90
27978;DHT22;15314;49.248;6.968;2024-01-06T03:23:16;6.80;99.90
27978;DHT22;15314;49.248;6.968;2024-01-06T03:24:37;6.90;99.90
27978;DHT22;15314;49.248;6.968;2024-01-06T03:25:57;6.80;99.90
27978;DHT22;15314;49.248;6.968;2024-01-06T03:27:18;6.70;99.90
27978;DHT22;15314;49.248;6.968;2024-01-06T03:28:39;6.70;99.90
27978;DHT22;15314;49.248;6.968;2024-01-06T03:29:59;6.70;99.90
27978;DHT22;15314;49.248;6.968;2024-01-06T03:31:20;6.50;99.90
27978;DHT22;15314;49.248;6.968;2024-01-06T03:32:42;6.40;99.90
27978;DHT22;15314;49.248;6.968;2024-01-06T03:34:03;6.20;99.90
27978;DHT22;15314;49.248;6.968;2024-01-06T03:35:23;6.30;99.90
27978;DHT22;15314;49.248;6.968;2024-01-06T03:36:44;6.20;99.90
27978;DHT22;15314;49.248;6.968;2024-01-06T03:38:05;6.20;99.90
27978;DHT22;15314;49.248;6.968;2024-01-06T03:39:25;6.10;99.90
27978;DHT22;15314;49.248;6.968;2024-01-06T03:40:46;6.00;99.90
27978;DHT22;15314;49.248;6.968;2024-01-06T03:42:07;6.00;99.90
27978;DHT22;15314;49.248;6.968;2024-01-06T03:43:27;6.10;99.90
27978;DHT22;15314;49.248;6.968;2024-01-06T03:44:48;6.20;99.90
27978;DHT22;15314;49.248;6.968;2024-01-06T03:46:08;6.20;99.90
27978;DHT22;15314;49.248;6.968;2024-01-06T03:47:29;6.10;99.90
27978;DHT22;15314;49.248;6.968;2024-01-06T03:48:50;6.20;99.90
27978;DHT22;15314;49.248;6.968;2024-01-06T03:50:10;6.30;99.90
27978;DHT22;15314;49.248;6.968;2024-01-06T03:51:31;6.40;99.90
27978;DHT22;15314;49.248;6.968;2024-01-06T03:52:51;6.50;99.90
27978;DHT22;15314;49.248;6.968;2024-01-06T03:54:12;6.60;99.90
27978;DHT22;15314;49.248;6.968;2024-01-06T03:55:33;6.60;99.90
27978;DHT22;15314;49.248;6.968;2024-01-06T03:56:54;6.70;99.90
27978;DHT22;15314;49.248;6.968;2024-01-06T03:58:15;6.80;99.90
27978;DHT22;15314;49.248;6.968;2024-01-06T03:59:35;6.80;99.90
27978;DHT22;15314;49.248;6.968;2024-01-06T04:00:56;6.90;99.90
27978;DHT22;15314;49.248;6.968;2024-01-06T04:02:16;7.00;99.90
27978;DHT22;15314;49.248;6.968;2024-01-06T04:03:38;7.00;99.90
27978;DHT22;15314;49.248;6.968;2024-01-06T04:05:00;7.00;99.90
27978;DHT22;15314;49.248;6.968;2024-01-06T04:06:21;7.00;99.90
27978;DHT22;15314;49.248;6.968;2024-01-06T04:07:41;6.90;99.90
27978;DHT22;15314;49.248;6.968;2024-01-06T04:09:02;6.80;99.90
27978;DHT22;15314;49.248;6.968;2024-01-06T04:10:23;6.70;99.90
27978;DHT22;15314;49.248;6.968;2024-01-06T04:11:44;6.70;99.90
27978;DHT22;15314;49.248;6.968;2024-01-06T04:13:04;6.70;99.90
27978;DHT22;15314;49.248;6.968;2024-01-06T04:14:25;6.60;99.90
27978;DHT22;15314;49.248;6.968;2024-01-06T04:15:45;6.60;99.90
27978;DHT22;15314;49.248;6.968;2024-01-06T04:17:06;6.50;99.90
27978;DHT22;15314;49.248;6.968;2024-01-06T04:18:27;6.50;99.90
27978;DHT22;15314;49.248;6.968;2024-01-06T04:19:47;6.50;99.90
27978;DHT22;15314;49.248;6.968;2024-01-06T04:21:08;6.50;99.90
27978;DHT22;15314;49.248;6.968;2024-01-06T04:22:29;6.50;99.90
27978;DHT22;15314;49.248;6.968;2024-01-06T04:23:49;6.50;99.90
27978;DHT22;15314;49.248;6.968;2024-01-06T04:25:10;6.50;99.90
27978;DHT22;15314;49.248;6.968;2024-01-06T04:26:31;6.50;99.90
27978;DHT22;15314;49.248;6.968;2024-01-06T04:27:51;6.50;99.90
27978;DHT22;15314;49.248;6.968;2024-01-06T04:29:12;6.40;99.90
27978;DHT22;15314;49.248;6.968;2024-01-06T04:30:33;6.40;99.90
27978;DHT22;15314;49.248;6.968;2024-01-06T04:31:53;6.40;99.90
27978;DHT22;15314;49.248;6.968;2024-01-06T04:33:14;6.40;99.90
27978;DHT22;15314;49.248;6.968;2024-01-06T04:34:34;6.40;99.90
27978;DHT22;15314;49.248;6.968;2024-01-06T04:35:55;6.60;99.90
27978;DHT22;15314;49.248;6.968;2024-01-06T04:37:16;6.60;99.90
27978;DHT22;15314;49.248;6.968;2024-01-06T04:38:36;6.60;99.90
27978;DHT22;15314;49.248;6.968;2024-01-06T04:39:57;6.60;99.90
27978;DHT22;15314;49.248;6.968;2024-01-06T04:41:18;6.50;99.90
27978;DHT22;15314;49.248;6.968;2024-01-06T04:42:38;6.60;99.90
27978;DHT22;15314;49.248;6.968;2024-01-06T04:43:59;6.60;99.90
27978;DHT22;15314;49.248;6.968;2024-01-06T04:45:19;6.70;99.90
27978;DHT22;15314;49.248;6.968;2024-01-06T04:46:40;6.60;99.90
27978;DHT22;15314;49.248;6.968;2024-01-06T04:48:01;6.60;99.90
27978;DHT22;15314;49.248;6.968;2024-01-06T04:49:21;6.60;99.90
27978;DHT22;15314;49.248;6.968;2024-01-06T04:50:42;6.50;99.90
27978;DHT22;15314;49.248;6.968;2024-01-06T04:52:03;6.50;99.90
27978;DHT22;15314;49.248;6.968;2024-01-06T04:53:23;6.40;99.90
27978;DHT22;15314;49.248;6.968;2024-01-06T04:54:44;6.30;99.90
27978;DHT22;15314;49.248;6.968;2024-01-06T04:56:05;6.10;99.90
27978;DHT22;15314;49.248;6.968;2024-01-06T04:57:25;6.10;99.90
27978;DHT22;15314;49.248;6.968;2024-01-06T04:58:46;6.00;99.90
27978;DHT22;15314;49.248;6.968;2024-01-06T05:00:07;6.00;99.90
27978;DHT22;15314;49.248;6.968;2024-01-06T05:01:27;6.00;99.90
27978;DHT22;15314;49.248;6.968;2024-01-06T05:02:48;6.10;99.90
27978;DHT22;15314;49.248;6.968;2024-01-06T05:04:09;6.10;99.90
27978;DHT22;15314;49.248;6.968;2024-01-06T05:05:29;6.10;99.90
27978;DHT22;15314;49.248;6.968;2024-01-06T05:06:51;6.20;99.90
27978;DHT22;15314;49.248;6.968;2024-01-06T05:08:12;6.20;99.90
27978;DHT22;15314;49.248;6.968;2024-01-06T05:09:32;6.30;99.90
27978;DHT22;15314;49.248;6.968;2024-01-06T05:10:53;6.40;99.90
27978;DHT22;15314;49.248;6.968;2024-01-06T05:12:14;6.40;99.90
27978;DHT22;15314;49.248;6.968;2024-01-06T05:13:34;6.40;99.90
27978;DHT22;15314;49.248;6.968;2024-01-06T05:14:55;6.30;99.90
27978;DHT22;15314;49.248;6.968;2024-01-06T05:16:16;6.40;99.90
27978;DHT22;15314;49.248;6.968;2024-01-06T05:17:36;6.50;99.90
27978;DHT22;15314;49.248;6.968;2024-01-06T05:18:57;6.50;99.90
27978;DHT22;15314;49.248;6.968;2024-01-06T05:20:17;6.60;99.90
27978;DHT22;15314;49.248;6.968;2024-01-06T05:21:39;6.60;99.90
27978;DHT22;15314;49.248;6.968;2024-01-06T05:22:59;6.60;99.90
27978;DHT22;15314;49.248;6.968;2024-01-06T05:24:20;6.60;99.90
27978;DHT22;15314;49.248;6.968;2024-01-06T05:25:41;6.60;99.90
27978;DHT22;15314;49.248;6.968;2024-01-06T05:27:01;6.50;99.90
27978;DHT22;15314;49.248;6.968;2024-01-06T05:28:22;6.60;99.90
27978;DHT22;15314;49.248;6.968;2024-01-06T05:29:42;6.70;99.90
27978;DHT22;15314;49.248;6.968;2024-01-06T05:31:03;6.80;99.90
27978;DHT22;15314;49.248;6.968;2024-01-06T05:32:24;6.80;99.90
27978;DHT22;15314;49.248;6.968;2024-01-06T05:33:44;6.90;99.90
27978;DHT22;15314;49.248;6.968;2024-01-06T05:35:05;6.90;99.90
27978;DHT22;15314;49.248;6.968;2024-01-06T05:36:26;6.90;99.90
27978;DHT22;15314;49.248;6.968;2024-01-06T05:37:47;6.80;99.90
27978;DHT22;15314;49.248;6.968;2024-01-06T05:39:08;6.90;99.90
27978;DHT22;15314;49.248;6.968;2024-01-06T05:40:28;6.80;99.90
27978;DHT22;15314;49.248;6.968;2024-01-06T05:41:49;6.90;99.90
27978;DHT22;15314;49.248;6.968;2024-01-06T05:43:09;6.90;99.90
27978;DHT22;15314;49.248;6.968;2024-01-06T05:44:30;6.90;99.90
27978;DHT22;15314;49.248;6.968;2024-01-06T05:45:51;7.00;99.90
27978;DHT22;15314;49.248;6.968;2024-01-06T05:47:11;7.10;99.90
27978;DHT22;15314;49.248;6.968;2024-01-06T05:48:32;7.00;99.90
27978;DHT22;15314;49.248;6.968;2024-01-06T05:49:53;7.10;99.90
27978;DHT22;15314;49.248;6.968;2024-01-06T05:51:13;7.10;99.90
27978;DHT22;15314;49.248;6.968;2024-01-06T05:52:34;7.10;99.90
27978;DHT22;15314;49.248;6.968;2024-01-06T05:53:55;7.20;99.90
27978;DHT22;15314;49.248;6.968;2024-01-06T05:55:15;7.30;99.90
27978;DHT22;15314;49.248;6.968;2024-01-06T05:56:36;7.30;99.90
27978;DHT22;15314;49.248;6.968;2024-01-06T05:57:57;7.30;99.90
27978;DHT22;15314;49.248;6.968;2024-01-06T05:59:17;7.30;99.90
27978;DHT22;15314;49.248;6.968;2024-01-06T06:00:38;7.10;99.90
27978;DHT22;15314;49.248;6.968;2024-01-06T06:01:59;7.10;99.90
27978;DHT22;15314;49.248;6.968;2024-01-06T06:03:19;7.00;99.90
27978;DHT22;15314;49.248;6.968;2024-01-06T06:04:40;7.00;99.90
27978;DHT22;15314;49.248;6.968;2024-01-06T06:06:00;7.00;99.90
27978;DHT22;15314;49.248;6.968;2024-01-06T06:07:21;7.00;99.90
27978;DHT22;15314;49.248;6.968;2024-01-06T06:08:43;7.00;99.90
27978;DHT22;15314;49.248;6.968;2024-01-06T06:10:09;6.90;99.90
27978;DHT22;15314;49.248;6.968;2024-01-06T06:11:30;6.90;99.90
27978;DHT22;15314;49.248;6.968;2024-01-06T06:12:50;6.80;99.90
27978;DHT22;15314;49.248;6.968;2024-01-06T06:14:11;6.80;99.90
27978;DHT22;15314;49.248;6.968;2024-01-06T06:15:32;6.70;99.90
27978;DHT22;15314;49.248;6.968;2024-01-06T06:16:53;6.70;99.90
27978;DHT22;15314;49.248;6.968;2024-01-06T06:18:13;6.70;99.90
27978;DHT22;15314;49.248;6.968;2024-01-06T06:19:34;6.80;99.90
27978;DHT22;15314;49.248;6.968;2024-01-06T06:20:54;6.80;99.90
27978;DHT22;15314;49.248;6.968;2024-01-06T06:22:15;6.90;99.90
27978;DHT22;15314;49.248;6.968;2024-01-06T06:23:36;6.90;99.90
27978;DHT22;15314;49.248;6.968;2024-01-06T06:24:59;7.00;99.90
27978;DHT22;15314;49.248;6.968;2024-01-06T06:26:20;7.10;99.90
27978;DHT22;15314;49.248;6.968;2024-01-06T06:27:41;7.20;99.90
27978;DHT22;15314;49.248;6.968;2024-01-06T06:29:01;7.10;99.90
27978;DHT22;15314;49.248;6.968;2024-01-06T06:30:22;7.00;99.90
27978;DHT22;15314;49.248;6.968;2024-01-06T06:31:42;7.00;99.90
27978;DHT22;15314;49.248;6.968;2024-01-06T06:33:07;7.00;99.90
27978;DHT22;15314;49.248;6.968;2024-01-06T06:34:27;7.00;99.90
27978;DHT22;15314;49.248;6.968;2024-01-06T06:35:48;6.90;99.90
27978;DHT22;15314;49.248;6.968;2024-01-06T06:37:08;6.90;99.90
27978;DHT22;15314;49.248;6.968;2024-01-06T06:38:29;6.90;99.90
27978;DHT22;15314;49.248;6.968;2024-01-06T06:39:50;6.90;99.90
27978;DHT22;15314;49.248;6.968;2024-01-06T06:41:10;6.90;99.90
27978;DHT22;15314;49.248;6.968;2024-01-06T06:42:31;7.00;99.90
27978;DHT22;15314;49.248;6.968;2024-01-06T06:43:51;7.00;99.90
27978;DHT22;15314;49.248;6.968;2024-01-06T06:45:12;7.00;99.90
27978;DHT22;15314;49.248;6.968;2024-01-06T06:46:32;7.10;99.90
27978;DHT22;15314;49.248;6.968;2024-01-06T06:47:53;7.10;99.90
27978;DHT22;15314;49.248;6.968;2024-01-06T06:49:14;7.10;99.90
27978;DHT22;15314;49.248;6.968;2024-01-06T06:50:34;7.10;99.90
27978;DHT22;15314;49.248;6.968;2024-01-06T06:51:55;7.20;99.90
27978;DHT22;15314;49.248;6.968;2024-01-06T06:53:16;7.20;99.90
27978;DHT22;15314;49.248;6.968;2024-01-06T06:54:37;7.20;99.90
27978;DHT22;15314;49.248;6.968;2024-01-06T06:55:57;7.20;99.90
27978;DHT22;15314;49.248;6.968;2024-01-06T06:57:18;7.20;99.90
27978;DHT22;15314;49.248;6.968;2024-01-06T06:58:39;7.20;99.90
27978;DHT22;15314;49.248;6.968;2024-01-06T06:59:59;7.30;99.90
27978;DHT22;15314;49.248;6.968;2024-01-06T07:01:20;7.30;99.90
27978;DHT22;15314;49.248;6.968;2024-01-06T07:02:41;7.30;99.90
27978;DHT22;15314;49.248;6.968;2024-01-06T07:04:02;7.40;99.90
27978;DHT22;15314;49.248;6.968;2024-01-06T07:05:23;7.30;99.90
27978;DHT22;15314;49.248;6.968;2024-01-06T07:06:43;7.30;99.90
27978;DHT22;15314;49.248;6.968;2024-01-06T07:08:04;7.40;99.90
27978;DHT22;15314;49.248;6.968;2024-01-06T07:09:24;7.50;99.90
27978;DHT22;15314;49.248;6.968;2024-01-06T07:10:45;7.40;99.90
27978;DHT22;15314;49.248;6.968;2024-01-06T07:12:06;7.40;99.90
27978;DHT22;15314;49.248;6.968;2024-01-06T07:13:26;7.40;99.90
27978;DHT22;15314;49.248;6.968;2024-01-06T07:14:47;7.30;99.90
27978;DHT22;15314;49.248;6.968;2024-01-06T07:16:08;7.30;99.90
27978;DHT22;15314;49.248;6.968;2024-01-06T07:17:29;7.30;99.90
27978;DHT22;15314;49.248;6.968;2024-01-06T07:18:50;7.30;99.90
27978;DHT22;15314;49.248;6.968;2024-01-06T07:20:10;7.30;99.90
27978;DHT22;15314;49.248;6.968;2024-01-06T07:21:31;7.30;99.90
27978;DHT22;15314;49.248;6.968;2024-01-06T07:22:51;7.30;99.90
27978;DHT22;15314;49.248;6.968;2024-01-06T07:24:12;7.30;99.90
27978;DHT22;15314;49.248;6.968;2024-01-06T07:25:33;7.30;99.90
27978;DHT22;15314;49.248;6.968;2024-01-06T07:26:54;7.30;99.90
27978;DHT22;15314;49.248;6.968;2024-01-06T07:28:15;7.30;99.90
27978;DHT22;15314;49.248;6.968;2024-01-06T07:29:35;7.40;99.90
27978;DHT22;15314;49.248;6.968;2024-01-06T07:30:56;7.50;99.90
27978;DHT22;15314;49.248;6.968;2024-01-06T07:32:17;7.50;99.90
27978;DHT22;15314;49.248;6.968;2024-01-06T07:33:37;7.50;99.90
27978;DHT22;15314;49.248;6.968;2024-01-06T07:34:58;7.50;99.90
27978;DHT22;15314;49.248;6.968;2024-01-06T07:36:18;7.50;99.90
27978;DHT22;15314;49.248;6.968;2024-01-06T07:37:39;7.50;99.90
27978;DHT22;15314;49.248;6.968;2024-01-06T07:39:00;7.50;99.90
27978;DHT22;15314;49.248;6.968;2024-01-06T07:40:20;7.50;99.90
27978;DHT22;15314;49.248;6.968;2024-01-06T07:41:43;7.60;99.90
27978;DHT22;15314;49.248;6.968;2024-01-06T07:43:05;7.50;99.90
27978;DHT22;15314;49.248;6.968;2024-01-06T07:44:26;7.50;99.90
27978;DHT22;15314;49.248;6.968;2024-01-06T07:45:46;7.60;99.90
27978;DHT22;15314;49.248;6.968;2024-01-06T07:47:07;7.60;99.90
27978;DHT22;15314;49.248;6.968;2024-01-06T07:48:27;7.60;99.90
27978;DHT22;15314;49.248;6.968;2024-01-06T07:49:48;7.50;99.90
27978;DHT22;15314;49.248;6.968;2024-01-06T07:51:08;7.50;99.90
27978;DHT22;15314;49.248;6.968;2024-01-06T07:52:29;7.50;99.90
27978;DHT22;15314;49.248;6.968;2024-01-06T07:53:50;7.50;99.90
27978;DHT22;15314;49.248;6.968;2024-01-06T07:55:11;7.50;99.90
27978;DHT22;15314;49.248;6.968;2024-01-06T07:56:32;7.50;99.90
27978;DHT22;15314;49.248;6.968;2024-01-06T07:57:52;7.50;99.90
27978;DHT22;15314;49.248;6.968;2024-01-06T07:59:13;7.50;99.90
27978;DHT22;15314;49.248;6.968;2024-01-06T08:00:34;7.50;99.90
27978;DHT22;15314;49.248;6.968;2024-01-06T08:01:55;7.50;99.90
27978;DHT22;15314;49.248;6.968;2024-01-06T08:03:15;7.40;99.90
27978;DHT22;15314;49.248;6.968;2024-01-06T08:04:36;7.40;99.90
27978;DHT22;15314;49.248;6.968;2024-01-06T08:05:57;7.60;99.90
27978;DHT22;15314;49.248;6.968;2024-01-06T08:07:17;7.70;99.90
27978;DHT22;15314;49.248;6.968;2024-01-06T08:08:38;7.70;99.90
27978;DHT22;15314;49.248;6.968;2024-01-06T08:09:59;7.70;99.90
27978;DHT22;15314;49.248;6.968;2024-01-06T08:11:19;7.70;99.90
27978;DHT22;15314;49.248;6.968;2024-01-06T08:12:40;7.80;99.90
27978;DHT22;15314;49.248;6.968;2024-01-06T08:14:01;7.70;99.90
27978;DHT22;15314;49.248;6.968;2024-01-06T08:15:21;7.60;99.90
27978;DHT22;15314;49.248;6.968;2024-01-06T08:16:42;7.70;99.90
27978;DHT22;15314;49.248;6.968;2024-01-06T08:18:03;7.70;99.90
27978;DHT22;15314;49.248;6.968;2024-01-06T08:19:24;7.70;99.90
27978;DHT22;15314;49.248;6.968;2024-01-06T08:20:44;7.70;99.90
27978;DHT22;15314;49.248;6.968;2024-01-06T08:22:05;7.80;99.90
27978;DHT22;15314;49.248;6.968;2024-01-06T08:23:26;7.80;99.90
27978;DHT22;15314;49.248;6.968;2024-01-06T08:24:46;7.80;99.90
27978;DHT22;15314;49.248;6.968;2024-01-06T08:26:08;7.90;99.90
27978;DHT22;15314;49.248;6.968;2024-01-06T08:27:28;7.90;99.90
27978;DHT22;15314;49.248;6.968;2024-01-06T08:28:49;7.90;99.90
27978;DHT22;15314;49.248;6.968;2024-01-06T08:30:10;7.90;99.90
27978;DHT22;15314;49.248;6.968;2024-01-06T08:31:30;7.90;99.90
27978;DHT22;15314;49.248;6.968;2024-01-06T08:32:51;7.90;99.90
27978;DHT22;15314;49.248;6.968;2024-01-06T08:34:12;7.80;99.90
27978;DHT22;15314;49.248;6.968;2024-01-06T08:35:33;7.90;99.90
27978;DHT22;15314;49.248;6.968;2024-01-06T08:36:52;7.90;99.90
27978;DHT22;15314;49.248;6.968;2024-01-06T08:38:11;7.80;99.90